sensor_id;sensor_type;location;lat;lon;timestamp;P1;durP1;ratioP1;P2;durP2;ratioP2
53497;SDS011;39382;47.168;16.008;2023-10-19T00:01:13;15.38;;;10.50;;
53497;SDS011;39382;47.168;16.008;2023-10-19T00:03:41;18.33;;;10.60;;
53497;SDS011;39382;47.168;16.008;2023-10-19T00:06:09;18.77;;;11.40;;
53497;SDS011;39382;47.168;16.008;2023-10-19T00:08:36;17.33;;;11.48;;
53497;SDS011;39382;47.168;16.008;2023-10-19T00:11:09;18.90;;;11.07;;
53497;SDS011;39382;47.168;16.008;2023-10-19T00:13:39;19.08;;;12.10;;
53497;SDS011;39382;47.168;16.008;2023-10-19T00:16:05;23.70;;;12.32;;
53497;SDS011;39382;47.168;16.008;2023-10-19T00:18:42;21.83;;;12.55;;
53497;SDS011;39382;47.168;16.008;2023-10-19T00:21:08;21.48;;;12.27;;
53497;SDS011;39382;47.168;16.008;2023-10-19T00:23:58;22.65;;;11.77;;
53497;SDS011;39382;47.168;16.008;2023-10-19T00:26:29;18.55;;;11.45;;
53497;SDS011;39382;47.168;16.008;2023-10-19T00:28:55;17.67;;;10.98;;
53497;SDS011;39382;47.168;16.008;2023-10-19T00:31:22;18.00;;;10.93;;
53497;SDS011;39382;47.168;16.008;2023-10-19T00:33:48;18.70;;;11.23;;
53497;SDS011;39382;47.168;16.008;2023-10-19T00:36:16;14.32;;;9.77;;
53497;SDS011;39382;47.168;16.008;2023-10-19T00:38:45;17.30;;;11.07;;
53497;SDS011;39382;47.168;16.008;2023-10-19T00:41:15;19.80;;;11.02;;
53497;SDS011;39382;47.168;16.008;2023-10-19T00:43:56;19.08;;;11.70;;
53497;SDS011;39382;47.168;16.008;2023-10-19T00:46:29;19.10;;;10.98;;
53497;SDS011;39382;47.168;16.008;2023-10-19T00:49:01;17.08;;;10.77;;
53497;SDS011;39382;47.168;16.008;2023-10-19T00:51:35;17.90;;;11.40;;
53497;SDS011;39382;47.168;16.008;2023-10-19T00:57:07;18.63;;;11.48;;
53497;SDS011;39382;47.168;16.008;2023-10-19T00:59:35;17.75;;;11.30;;
53497;SDS011;39382;47.168;16.008;2023-10-19T01:02:09;18.10;;;11.02;;
53497;SDS011;39382;47.168;16.008;2023-10-19T01:04:54;18.35;;;12.13;;
53497;SDS011;39382;47.168;16.008;2023-10-19T01:07:24;16.80;;;10.23;;
53497;SDS011;39382;47.168;16.008;2023-10-19T01:09:54;17.85;;;11.40;;
53497;SDS011;39382;47.168;16.008;2023-10-19T01:12:24;20.08;;;13.18;;
53497;SDS011;39382;47.168;16.008;2023-10-19T01:17:48;17.75;;;10.70;;
53497;SDS011;39382;47.168;16.008;2023-10-19T01:20:27;22.38;;;11.73;;
53497;SDS011;39382;47.168;16.008;2023-10-19T01:25:47;20.55;;;12.02;;
53497;SDS011;39382;47.168;16.008;2023-10-19T01:28:19;17.67;;;11.35;;
53497;SDS011;39382;47.168;16.008;2023-10-19T01:30:49;17.25;;;11.18;;
53497;SDS011;39382;47.168;16.008;2023-10-19T01:33:18;17.67;;;11.50;;
53497;SDS011;39382;47.168;16.008;2023-10-19T01:35:43;18.80;;;11.48;;
53497;SDS011;39382;47.168;16.008;2023-10-19T01:38:28;18.13;;;10.45;;
53497;SDS011;39382;47.168;16.008;2023-10-19T01:40:58;15.15;;;10.38;;
53497;SDS011;39382;47.168;16.008;2023-10-19T01:43:28;18.02;;;12.57;;
53497;SDS011;39382;47.168;16.008;2023-10-19T01:45:57;18.23;;;10.93;;
53497;SDS011;39382;47.168;16.008;2023-10-19T01:48:28;19.58;;;10.85;;
53497;SDS011;39382;47.168;16.008;2023-10-19T01:51:02;15.70;;;10.50;;
53497;SDS011;39382;47.168;16.008;2023-10-19T01:53:30;20.45;;;11.02;;
53497;SDS011;39382;47.168;16.008;2023-10-19T01:55:56;19.55;;;11.35;;
53497;SDS011;39382;47.168;16.008;2023-10-19T01:58:25;16.77;;;10.65;;
53497;SDS011;39382;47.168;16.008;2023-10-19T02:00:51;16.25;;;11.50;;
53497;SDS011;39382;47.168;16.008;2023-10-19T02:03:25;18.77;;;11.85;;
53497;SDS011;39382;47.168;16.008;2023-10-19T02:05:59;18.55;;;10.52;;
53497;SDS011;39382;47.168;16.008;2023-10-19T02:08:25;21.00;;;12.13;;
53497;SDS011;39382;47.168;16.008;2023-10-19T02:10:52;20.65;;;12.02;;
53497;SDS011;39382;47.168;16.008;2023-10-19T02:13:18;17.48;;;10.85;;
53497;SDS011;39382;47.168;16.008;2023-10-19T02:15:44;18.45;;;11.10;;
53497;SDS011;39382;47.168;16.008;2023-10-19T02:18:10;14.13;;;9.50;;
53497;SDS011;39382;47.168;16.008;2023-10-19T02:20:37;16.48;;;10.75;;
53497;SDS011;39382;47.168;16.008;2023-10-19T02:23:07;18.52;;;12.18;;
53497;SDS011;39382;47.168;16.008;2023-10-19T02:25:33;20.10;;;11.65;;
53497;SDS011;39382;47.168;16.008;2023-10-19T02:28:05;18.83;;;11.20;;
53497;SDS011;39382;47.168;16.008;2023-10-19T02:30:34;21.20;;;12.00;;
53497;SDS011;39382;47.168;16.008;2023-10-19T02:33:00;16.02;;;11.18;;
53497;SDS011;39382;47.168;16.008;2023-10-19T02:35:26;18.08;;;10.32;;
53497;SDS011;39382;47.168;16.008;2023-10-19T02:37:55;18.88;;;11.43;;
53497;SDS011;39382;47.168;16.008;2023-10-19T02:40:21;17.48;;;10.77;;
53497;SDS011;39382;47.168;16.008;2023-10-19T02:42:48;19.42;;;11.55;;
53497;SDS011;39382;47.168;16.008;2023-10-19T02:45:15;21.63;;;11.48;;
53497;SDS011;39382;47.168;16.008;2023-10-19T02:47:45;17.17;;;11.55;;
53497;SDS011;39382;47.168;16.008;2023-10-19T02:50:11;20.48;;;11.88;;
53497;SDS011;39382;47.168;16.008;2023-10-19T02:52:42;19.42;;;11.75;;
53497;SDS011;39382;47.168;16.008;2023-10-19T02:55:11;19.27;;;11.82;;
53497;SDS011;39382;47.168;16.008;2023-10-19T02:57:36;14.77;;;9.48;;
53497;SDS011;39382;47.168;16.008;2023-10-19T03:00:05;18.17;;;11.32;;
53497;SDS011;39382;47.168;16.008;2023-10-19T03:02:39;17.85;;;9.55;;
53497;SDS011;39382;47.168;16.008;2023-10-19T03:05:05;17.95;;;10.93;;
53497;SDS011;39382;47.168;16.008;2023-10-19T03:07:42;18.23;;;10.48;;
53497;SDS011;39382;47.168;16.008;2023-10-19T03:10:11;17.50;;;10.68;;
53497;SDS011;39382;47.168;16.008;2023-10-19T03:12:49;20.85;;;11.10;;
53497;SDS011;39382;47.168;16.008;2023-10-19T03:15:15;19.48;;;9.85;;
53497;SDS011;39382;47.168;16.008;2023-10-19T03:17:44;18.10;;;10.38;;
53497;SDS011;39382;47.168;16.008;2023-10-19T03:20:10;18.73;;;11.75;;
53497;SDS011;39382;47.168;16.008;2023-10-19T03:22:36;18.33;;;9.77;;
53497;SDS011;39382;47.168;16.008;2023-10-19T03:25:04;16.20;;;9.93;;
53497;SDS011;39382;47.168;16.008;2023-10-19T03:28:00;16.67;;;9.95;;
53497;SDS011;39382;47.168;16.008;2023-10-19T03:30:36;16.83;;;10.35;;
53497;SDS011;39382;47.168;16.008;2023-10-19T03:33:08;16.77;;;10.05;;
53497;SDS011;39382;47.168;16.008;2023-10-19T03:35:35;19.27;;;10.07;;
53497;SDS011;39382;47.168;16.008;2023-10-19T03:38:02;16.80;;;10.77;;
53497;SDS011;39382;47.168;16.008;2023-10-19T03:40:33;17.70;;;9.93;;
53497;SDS011;39382;47.168;16.008;2023-10-19T03:43:03;22.63;;;10.57;;
53497;SDS011;39382;47.168;16.008;2023-10-19T03:45:42;14.45;;;9.75;;
53497;SDS011;39382;47.168;16.008;2023-10-19T03:48:15;17.45;;;10.32;;
53497;SDS011;39382;47.168;16.008;2023-10-19T03:50:42;15.02;;;10.00;;
53497;SDS011;39382;47.168;16.008;2023-10-19T03:53:08;19.73;;;10.65;;
53497;SDS011;39382;47.168;16.008;2023-10-19T03:55:37;20.30;;;10.05;;
53497;SDS011;39382;47.168;16.008;2023-10-19T03:58:03;15.43;;;9.82;;
53497;SDS011;39382;47.168;16.008;2023-10-19T04:00:29;15.82;;;9.30;;
53497;SDS011;39382;47.168;16.008;2023-10-19T04:02:58;16.95;;;9.85;;
53497;SDS011;39382;47.168;16.008;2023-10-19T04:05:24;13.65;;;8.30;;
53497;SDS011;39382;47.168;16.008;2023-10-19T04:07:51;18.20;;;10.43;;
53497;SDS011;39382;47.168;16.008;2023-10-19T04:10:20;18.77;;;10.32;;
53497;SDS011;39382;47.168;16.008;2023-10-19T04:13:03;13.68;;;9.05;;
53497;SDS011;39382;47.168;16.008;2023-10-19T04:15:30;16.45;;;10.02;;
53497;SDS011;39382;47.168;16.008;2023-10-19T04:17:59;15.15;;;9.40;;
53497;SDS011;39382;47.168;16.008;2023-10-19T04:20:25;19.70;;;11.00;;
53497;SDS011;39382;47.168;16.008;2023-10-19T04:22:51;17.58;;;10.18;;
53497;SDS011;39382;47.168;16.008;2023-10-19T04:25:17;16.08;;;9.82;;
53497;SDS011;39382;47.168;16.008;2023-10-19T04:28:01;16.42;;;9.27;;
53497;SDS011;39382;47.168;16.008;2023-10-19T04:30:28;15.60;;;9.20;;
53497;SDS011;39382;47.168;16.008;2023-10-19T04:32:54;19.52;;;10.50;;
53497;SDS011;39382;47.168;16.008;2023-10-19T04:35:23;17.35;;;9.32;;
53497;SDS011;39382;47.168;16.008;2023-10-19T04:37:49;16.67;;;9.32;;
53497;SDS011;39382;47.168;16.008;2023-10-19T04:40:17;15.27;;;9.50;;
53497;SDS011;39382;47.168;16.008;2023-10-19T04:42:48;21.55;;;11.38;;
53497;SDS011;39382;47.168;16.008;2023-10-19T04:45:16;19.55;;;9.68;;
53497;SDS011;39382;47.168;16.008;2023-10-19T04:47:41;16.17;;;9.55;;
53497;SDS011;39382;47.168;16.008;2023-10-19T04:50:07;21.17;;;10.93;;
53497;SDS011;39382;47.168;16.008;2023-10-19T04:52:36;16.83;;;9.95;;
53497;SDS011;39382;47.168;16.008;2023-10-19T04:55:03;15.32;;;10.05;;
53497;SDS011;39382;47.168;16.008;2023-10-19T04:57:29;16.50;;;10.52;;
53497;SDS011;39382;47.168;16.008;2023-10-19T04:59:55;15.95;;;10.00;;
53497;SDS011;39382;47.168;16.008;2023-10-19T05:02:21;20.15;;;11.73;;
53497;SDS011;39382;47.168;16.008;2023-10-19T05:04:47;17.60;;;10.88;;
53497;SDS011;39382;47.168;16.008;2023-10-19T05:07:13;20.10;;;10.95;;
53497;SDS011;39382;47.168;16.008;2023-10-19T05:09:45;20.63;;;9.27;;
53497;SDS011;39382;47.168;16.008;2023-10-19T05:12:11;18.40;;;10.77;;
53497;SDS011;39382;47.168;16.008;2023-10-19T05:14:39;18.55;;;10.82;;
53497;SDS011;39382;47.168;16.008;2023-10-19T05:17:07;15.23;;;9.93;;
53497;SDS011;39382;47.168;16.008;2023-10-19T05:19:37;17.80;;;10.27;;
53497;SDS011;39382;47.168;16.008;2023-10-19T05:22:05;17.77;;;10.77;;
53497;SDS011;39382;47.168;16.008;2023-10-19T05:24:32;16.77;;;9.60;;
53497;SDS011;39382;47.168;16.008;2023-10-19T05:26:57;16.05;;;10.50;;
53497;SDS011;39382;47.168;16.008;2023-10-19T05:29:23;22.17;;;11.65;;
53497;SDS011;39382;47.168;16.008;2023-10-19T05:31:52;20.83;;;11.85;;
53497;SDS011;39382;47.168;16.008;2023-10-19T05:34:22;23.65;;;12.98;;
53497;SDS011;39382;47.168;16.008;2023-10-19T05:36:48;18.13;;;11.60;;
53497;SDS011;39382;47.168;16.008;2023-10-19T05:39:17;22.02;;;11.32;;
53497;SDS011;39382;47.168;16.008;2023-10-19T05:41:44;21.63;;;12.27;;
53497;SDS011;39382;47.168;16.008;2023-10-19T05:44:09;20.45;;;11.60;;
53497;SDS011;39382;47.168;16.008;2023-10-19T05:46:35;17.17;;;10.60;;
53497;SDS011;39382;47.168;16.008;2023-10-19T05:49:02;17.67;;;10.75;;
53497;SDS011;39382;47.168;16.008;2023-10-19T05:51:29;53.42;;;21.88;;
53497;SDS011;39382;47.168;16.008;2023-10-19T05:53:57;43.35;;;20.23;;
53497;SDS011;39382;47.168;16.008;2023-10-19T05:56:29;37.70;;;17.10;;
53497;SDS011;39382;47.168;16.008;2023-10-19T05:58:56;30.65;;;14.90;;
53497;SDS011;39382;47.168;16.008;2023-10-19T06:01:21;21.50;;;12.63;;
53497;SDS011;39382;47.168;16.008;2023-10-19T06:03:48;26.55;;;12.93;;
53497;SDS011;39382;47.168;16.008;2023-10-19T06:06:13;18.50;;;11.93;;
53497;SDS011;39382;47.168;16.008;2023-10-19T06:08:42;15.80;;;10.77;;
53497;SDS011;39382;47.168;16.008;2023-10-19T06:11:08;21.83;;;11.43;;
53497;SDS011;39382;47.168;16.008;2023-10-19T06:13:34;20.52;;;12.95;;
53497;SDS011;39382;47.168;16.008;2023-10-19T06:15:59;20.60;;;12.38;;
53497;SDS011;39382;47.168;16.008;2023-10-19T06:18:25;25.50;;;14.07;;
53497;SDS011;39382;47.168;16.008;2023-10-19T06:20:51;23.42;;;15.13;;
53497;SDS011;39382;47.168;16.008;2023-10-19T06:23:19;19.75;;;13.15;;
53497;SDS011;39382;47.168;16.008;2023-10-19T06:25:45;27.75;;;14.27;;
53497;SDS011;39382;47.168;16.008;2023-10-19T06:28:11;20.23;;;11.98;;
53497;SDS011;39382;47.168;16.008;2023-10-19T06:30:37;20.98;;;12.18;;
53497;SDS011;39382;47.168;16.008;2023-10-19T06:33:03;25.67;;;13.35;;
53497;SDS011;39382;47.168;16.008;2023-10-19T06:35:30;22.63;;;12.90;;
53497;SDS011;39382;47.168;16.008;2023-10-19T06:38:01;27.05;;;15.15;;
53497;SDS011;39382;47.168;16.008;2023-10-19T06:40:29;25.70;;;14.68;;
53497;SDS011;39382;47.168;16.008;2023-10-19T06:42:55;24.13;;;16.58;;
53497;SDS011;39382;47.168;16.008;2023-10-19T06:45:22;28.27;;;17.05;;
53497;SDS011;39382;47.168;16.008;2023-10-19T06:47:49;24.15;;;14.95;;
53497;SDS011;39382;47.168;16.008;2023-10-19T06:50:15;24.83;;;15.38;;
53497;SDS011;39382;47.168;16.008;2023-10-19T06:52:43;22.83;;;13.45;;
53497;SDS011;39382;47.168;16.008;2023-10-19T06:55:10;21.50;;;13.05;;
53497;SDS011;39382;47.168;16.008;2023-10-19T06:57:42;21.20;;;11.40;;
53497;SDS011;39382;47.168;16.008;2023-10-19T07:00:09;20.25;;;12.30;;
53497;SDS011;39382;47.168;16.008;2023-10-19T07:02:39;20.55;;;11.88;;
53497;SDS011;39382;47.168;16.008;2023-10-19T07:05:07;14.77;;;10.15;;
53497;SDS011;39382;47.168;16.008;2023-10-19T07:07:35;15.68;;;10.25;;
53497;SDS011;39382;47.168;16.008;2023-10-19T07:10:01;14.45;;;9.73;;
53497;SDS011;39382;47.168;16.008;2023-10-19T07:12:28;12.75;;;8.90;;
53497;SDS011;39382;47.168;16.008;2023-10-19T07:14:54;11.02;;;8.80;;
53497;SDS011;39382;47.168;16.008;2023-10-19T07:17:19;15.23;;;9.80;;
53497;SDS011;39382;47.168;16.008;2023-10-19T07:19:45;12.63;;;9.75;;
53497;SDS011;39382;47.168;16.008;2023-10-19T07:22:13;12.75;;;8.52;;
53497;SDS011;39382;47.168;16.008;2023-10-19T07:24:40;16.65;;;9.65;;
53497;SDS011;39382;47.168;16.008;2023-10-19T07:27:06;14.45;;;9.52;;
53497;SDS011;39382;47.168;16.008;2023-10-19T07:29:33;16.85;;;9.88;;
53497;SDS011;39382;47.168;16.008;2023-10-19T07:32:01;20.70;;;9.27;;
53497;SDS011;39382;47.168;16.008;2023-10-19T07:34:30;14.98;;;9.00;;
53497;SDS011;39382;47.168;16.008;2023-10-19T07:36:58;14.85;;;9.02;;
53497;SDS011;39382;47.168;16.008;2023-10-19T07:39:24;11.75;;;8.75;;
53497;SDS011;39382;47.168;16.008;2023-10-19T07:41:54;14.27;;;8.70;;
53497;SDS011;39382;47.168;16.008;2023-10-19T07:44:21;13.25;;;9.27;;
53497;SDS011;39382;47.168;16.008;2023-10-19T07:46:46;13.43;;;9.50;;
53497;SDS011;39382;47.168;16.008;2023-10-19T07:49:12;15.73;;;8.85;;
53497;SDS011;39382;47.168;16.008;2023-10-19T07:51:49;13.00;;;9.57;;
53497;SDS011;39382;47.168;16.008;2023-10-19T07:54:16;12.55;;;8.50;;
53497;SDS011;39382;47.168;16.008;2023-10-19T07:56:41;17.75;;;9.18;;
53497;SDS011;39382;47.168;16.008;2023-10-19T07:59:08;13.80;;;8.75;;
53497;SDS011;39382;47.168;16.008;2023-10-19T08:01:34;14.10;;;9.25;;
53497;SDS011;39382;47.168;16.008;2023-10-19T08:04:01;14.30;;;9.60;;
53497;SDS011;39382;47.168;16.008;2023-10-19T08:06:26;11.88;;;9.05;;
53497;SDS011;39382;47.168;16.008;2023-10-19T08:08:52;14.18;;;9.32;;
53497;SDS011;39382;47.168;16.008;2023-10-19T08:11:18;15.77;;;10.00;;
53497;SDS011;39382;47.168;16.008;2023-10-19T08:13:43;14.35;;;9.25;;
53497;SDS011;39382;47.168;16.008;2023-10-19T08:16:09;11.60;;;8.40;;
53497;SDS011;39382;47.168;16.008;2023-10-19T08:18:37;14.13;;;9.00;;
53497;SDS011;39382;47.168;16.008;2023-10-19T08:21:02;13.60;;;8.93;;
53497;SDS011;39382;47.168;16.008;2023-10-19T08:23:28;12.15;;;7.30;;
53497;SDS011;39382;47.168;16.008;2023-10-19T08:25:56;13.70;;;7.82;;
53497;SDS011;39382;47.168;16.008;2023-10-19T08:28:23;10.60;;;7.65;;
53497;SDS011;39382;47.168;16.008;2023-10-19T08:30:49;10.45;;;7.40;;
53497;SDS011;39382;47.168;16.008;2023-10-19T08:33:25;8.02;;;6.00;;
53497;SDS011;39382;47.168;16.008;2023-10-19T08:35:52;9.77;;;6.60;;
53497;SDS011;39382;47.168;16.008;2023-10-19T08:38:19;9.45;;;6.70;;
53497;SDS011;39382;47.168;16.008;2023-10-19T08:40:45;10.20;;;6.18;;
53497;SDS011;39382;47.168;16.008;2023-10-19T08:43:11;10.68;;;5.68;;
53497;SDS011;39382;47.168;16.008;2023-10-19T08:45:38;8.98;;;5.90;;
53497;SDS011;39382;47.168;16.008;2023-10-19T08:48:04;8.80;;;6.68;;
53497;SDS011;39382;47.168;16.008;2023-10-19T08:50:33;8.88;;;6.32;;
53497;SDS011;39382;47.168;16.008;2023-10-19T08:53:00;13.13;;;8.27;;
53497;SDS011;39382;47.168;16.008;2023-10-19T08:55:27;11.23;;;9.00;;
53497;SDS011;39382;47.168;16.008;2023-10-19T08:57:53;58.58;;;34.45;;
53497;SDS011;39382;47.168;16.008;2023-10-19T09:00:19;14.07;;;11.38;;
53497;SDS011;39382;47.168;16.008;2023-10-19T09:02:50;10.55;;;5.47;;
53497;SDS011;39382;47.168;16.008;2023-10-19T09:05:17;9.48;;;5.57;;
53497;SDS011;39382;47.168;16.008;2023-10-19T09:07:53;11.10;;;6.82;;
53497;SDS011;39382;47.168;16.008;2023-10-19T09:12:58;8.10;;;5.30;;
53497;SDS011;39382;47.168;16.008;2023-10-19T09:15:28;10.10;;;5.32;;
53497;SDS011;39382;47.168;16.008;2023-10-19T09:23:27;11.88;;;6.57;;
53497;SDS011;39382;47.168;16.008;2023-10-19T09:25:55;8.63;;;5.68;;
53497;SDS011;39382;47.168;16.008;2023-10-19T09:28:22;7.47;;;4.50;;
53497;SDS011;39382;47.168;16.008;2023-10-19T09:30:49;7.63;;;5.50;;
53497;SDS011;39382;47.168;16.008;2023-10-19T09:33:20;7.47;;;4.88;;
53497;SDS011;39382;47.168;16.008;2023-10-19T09:35:50;7.90;;;5.05;;
53497;SDS011;39382;47.168;16.008;2023-10-19T09:38:21;11.48;;;7.30;;
53497;SDS011;39382;47.168;16.008;2023-10-19T09:40:51;7.22;;;4.80;;
53497;SDS011;39382;47.168;16.008;2023-10-19T09:43:25;6.15;;;4.55;;
53497;SDS011;39382;47.168;16.008;2023-10-19T09:46:09;6.38;;;3.83;;
53497;SDS011;39382;47.168;16.008;2023-10-19T09:48:41;6.05;;;3.75;;
53497;SDS011;39382;47.168;16.008;2023-10-19T09:51:10;4.40;;;3.75;;
53497;SDS011;39382;47.168;16.008;2023-10-19T09:53:37;5.68;;;3.97;;
53497;SDS011;39382;47.168;16.008;2023-10-19T09:56:05;8.10;;;3.90;;
53497;SDS011;39382;47.168;16.008;2023-10-19T09:58:40;8.95;;;3.97;;
53497;SDS011;39382;47.168;16.008;2023-10-19T10:01:11;6.93;;;4.32;;
53497;SDS011;39382;47.168;16.008;2023-10-19T10:03:43;14.40;;;8.50;;
53497;SDS011;39382;47.168;16.008;2023-10-19T10:06:11;17.85;;;9.10;;
53497;SDS011;39382;47.168;16.008;2023-10-19T10:08:39;3.60;;;3.30;;
53497;SDS011;39382;47.168;16.008;2023-10-19T10:13:42;33.35;;;14.77;;
53497;SDS011;39382;47.168;16.008;2023-10-19T10:16:11;5.80;;;4.90;;
53497;SDS011;39382;47.168;16.008;2023-10-19T10:18:38;7.03;;;4.55;;
53497;SDS011;39382;47.168;16.008;2023-10-19T10:23:43;16.48;;;8.18;;
53497;SDS011;39382;47.168;16.008;2023-10-19T10:26:12;8.80;;;5.32;;
53497;SDS011;39382;47.168;16.008;2023-10-19T10:28:48;4.20;;;3.38;;
53497;SDS011;39382;47.168;16.008;2023-10-19T10:31:34;5.55;;;3.67;;
53497;SDS011;39382;47.168;16.008;2023-10-19T10:34:05;5.50;;;4.30;;
53497;SDS011;39382;47.168;16.008;2023-10-19T10:39:23;4.53;;;2.97;;
53497;SDS011;39382;47.168;16.008;2023-10-19T10:42:02;4.40;;;3.55;;
53497;SDS011;39382;47.168;16.008;2023-10-19T10:47:03;4.82;;;3.00;;
53497;SDS011;39382;47.168;16.008;2023-10-19T10:49:34;3.47;;;2.60;;
53497;SDS011;39382;47.168;16.008;2023-10-19T10:52:00;6.13;;;3.47;;
53497;SDS011;39382;47.168;16.008;2023-10-19T10:54:26;4.97;;;4.20;;
53497;SDS011;39382;47.168;16.008;2023-10-19T10:56:51;5.10;;;4.28;;
53497;SDS011;39382;47.168;16.008;2023-10-19T10:59:17;3.58;;;2.92;;
53497;SDS011;39382;47.168;16.008;2023-10-19T11:01:43;3.63;;;3.33;;
53497;SDS011;39382;47.168;16.008;2023-10-19T11:04:09;3.22;;;2.72;;
53497;SDS011;39382;47.168;16.008;2023-10-19T11:06:48;6.55;;;4.63;;
53497;SDS011;39382;47.168;16.008;2023-10-19T11:09:20;7.93;;;3.42;;
53497;SDS011;39382;47.168;16.008;2023-10-19T11:11:49;3.70;;;3.33;;
53497;SDS011;39382;47.168;16.008;2023-10-19T11:14:17;4.95;;;3.25;;
53497;SDS011;39382;47.168;16.008;2023-10-19T11:16:42;3.88;;;2.72;;
53497;SDS011;39382;47.168;16.008;2023-10-19T11:19:08;6.18;;;2.80;;
53497;SDS011;39382;47.168;16.008;2023-10-19T11:21:35;3.47;;;2.35;;
53497;SDS011;39382;47.168;16.008;2023-10-19T11:24:01;2.90;;;2.30;;
53497;SDS011;39382;47.168;16.008;2023-10-19T11:26:27;3.67;;;3.30;;
53497;SDS011;39382;47.168;16.008;2023-10-19T11:28:57;4.18;;;3.58;;
53497;SDS011;39382;47.168;16.008;2023-10-19T11:31:26;2.92;;;2.55;;
53497;SDS011;39382;47.168;16.008;2023-10-19T11:33:53;3.63;;;3.33;;
53497;SDS011;39382;47.168;16.008;2023-10-19T11:36:23;2.67;;;2.47;;
53497;SDS011;39382;47.168;16.008;2023-10-19T11:38:50;1.42;;;1.33;;
53497;SDS011;39382;47.168;16.008;2023-10-19T11:41:17;2.53;;;2.30;;
53497;SDS011;39382;47.168;16.008;2023-10-19T11:43:47;2.80;;;1.85;;
53497;SDS011;39382;47.168;16.008;2023-10-19T11:46:13;1.50;;;1.40;;
53497;SDS011;39382;47.168;16.008;2023-10-19T11:48:40;3.70;;;2.05;;
53497;SDS011;39382;47.168;16.008;2023-10-19T11:51:07;1.88;;;1.73;;
53497;SDS011;39382;47.168;16.008;2023-10-19T11:53:36;1.88;;;1.60;;
53497;SDS011;39382;47.168;16.008;2023-10-19T11:58:32;1.67;;;1.45;;
53497;SDS011;39382;47.168;16.008;2023-10-19T12:00:59;1.55;;;0.80;;
53497;SDS011;39382;47.168;16.008;2023-10-19T12:03:30;1.95;;;1.20;;
53497;SDS011;39382;47.168;16.008;2023-10-19T12:05:56;3.47;;;2.00;;
53497;SDS011;39382;47.168;16.008;2023-10-19T12:08:22;1.33;;;1.10;;
53497;SDS011;39382;47.168;16.008;2023-10-19T12:10:49;2.25;;;1.55;;
53497;SDS011;39382;47.168;16.008;2023-10-19T12:13:15;4.32;;;1.45;;
53497;SDS011;39382;47.168;16.008;2023-10-19T12:15:41;2.70;;;1.75;;
53497;SDS011;39382;47.168;16.008;2023-10-19T12:18:10;6.53;;;4.97;;
53497;SDS011;39382;47.168;16.008;2023-10-19T12:20:36;2.65;;;1.98;;
53497;SDS011;39382;47.168;16.008;2023-10-19T12:23:01;6.88;;;2.80;;
53497;SDS011;39382;47.168;16.008;2023-10-19T12:25:30;1.77;;;1.65;;
53497;SDS011;39382;47.168;16.008;2023-10-19T12:27:57;2.50;;;1.33;;
53497;SDS011;39382;47.168;16.008;2023-10-19T12:30:23;4.25;;;2.08;;
53497;SDS011;39382;47.168;16.008;2023-10-19T12:32:51;4.40;;;1.30;;
53497;SDS011;39382;47.168;16.008;2023-10-19T12:35:20;1.27;;;1.02;;
53497;SDS011;39382;47.168;16.008;2023-10-19T12:37:49;16.92;;;10.25;;
53497;SDS011;39382;47.168;16.008;2023-10-19T12:40:20;2.55;;;1.92;;
53497;SDS011;39382;47.168;16.008;2023-10-19T12:42:53;1.85;;;0.98;;
53497;SDS011;39382;47.168;16.008;2023-10-19T12:45:22;4.32;;;1.08;;
53497;SDS011;39382;47.168;16.008;2023-10-19T12:47:51;1.70;;;0.80;;
53497;SDS011;39382;47.168;16.008;2023-10-19T12:50:18;1.55;;;1.45;;
53497;SDS011;39382;47.168;16.008;2023-10-19T12:52:47;2.28;;;1.05;;
53497;SDS011;39382;47.168;16.008;2023-10-19T12:55:14;2.20;;;1.00;;
53497;SDS011;39382;47.168;16.008;2023-10-19T12:57:41;14.13;;;1.90;;
53497;SDS011;39382;47.168;16.008;2023-10-19T13:00:07;2.80;;;1.05;;
53497;SDS011;39382;47.168;16.008;2023-10-19T13:02:54;2.45;;;0.80;;
53497;SDS011;39382;47.168;16.008;2023-10-19T13:05:25;0.50;;;0.50;;
53497;SDS011;39382;47.168;16.008;2023-10-19T13:08:00;1.38;;;0.98;;
53497;SDS011;39382;47.168;16.008;2023-10-19T13:10:29;1.77;;;0.73;;
53497;SDS011;39382;47.168;16.008;2023-10-19T13:13:02;1.58;;;0.82;;
53497;SDS011;39382;47.168;16.008;2023-10-19T13:15:33;1.13;;;1.00;;
53497;SDS011;39382;47.168;16.008;2023-10-19T13:18:02;2.55;;;0.90;;
53497;SDS011;39382;47.168;16.008;2023-10-19T13:20:31;2.78;;;0.93;;
53497;SDS011;39382;47.168;16.008;2023-10-19T13:23:00;0.70;;;0.70;;
53497;SDS011;39382;47.168;16.008;2023-10-19T13:25:28;2.45;;;1.48;;
53497;SDS011;39382;47.168;16.008;2023-10-19T13:28:08;2.08;;;0.52;;
53497;SDS011;39382;47.168;16.008;2023-10-19T13:30:41;0.50;;;0.50;;
53497;SDS011;39382;47.168;16.008;2023-10-19T13:33:09;0.60;;;0.47;;
53497;SDS011;39382;47.168;16.008;2023-10-19T13:35:38;0.50;;;0.50;;
53497;SDS011;39382;47.168;16.008;2023-10-19T13:38:05;1.38;;;0.70;;
53497;SDS011;39382;47.168;16.008;2023-10-19T13:40:32;1.70;;;1.50;;
53497;SDS011;39382;47.168;16.008;2023-10-19T13:43:02;2.25;;;0.70;;
53497;SDS011;39382;47.168;16.008;2023-10-19T13:45:32;2.47;;;1.02;;
53497;SDS011;39382;47.168;16.008;2023-10-19T13:48:00;4.07;;;2.20;;
53497;SDS011;39382;47.168;16.008;2023-10-19T13:50:29;19.90;;;4.43;;
53497;SDS011;39382;47.168;16.008;2023-10-19T13:52:56;3.53;;;1.80;;
53497;SDS011;39382;47.168;16.008;2023-10-19T13:55:23;18.50;;;8.48;;
53497;SDS011;39382;47.168;16.008;2023-10-19T13:57:49;10.07;;;5.30;;
53497;SDS011;39382;47.168;16.008;2023-10-19T14:00:15;4.75;;;2.65;;
53497;SDS011;39382;47.168;16.008;2023-10-19T14:02:49;2.90;;;2.67;;
53497;SDS011;39382;47.168;16.008;2023-10-19T14:05:15;1.10;;;0.85;;
53497;SDS011;39382;47.168;16.008;2023-10-19T14:07:41;12.32;;;7.68;;
53497;SDS011;39382;47.168;16.008;2023-10-19T14:10:08;3.58;;;2.70;;
53497;SDS011;39382;47.168;16.008;2023-10-19T14:12:38;3.65;;;2.83;;
53497;SDS011;39382;47.168;16.008;2023-10-19T14:15:13;7.43;;;4.32;;
53497;SDS011;39382;47.168;16.008;2023-10-19T14:17:40;14.18;;;8.30;;
53497;SDS011;39382;47.168;16.008;2023-10-19T14:20:06;3.25;;;1.77;;
53497;SDS011;39382;47.168;16.008;2023-10-19T14:22:37;8.93;;;3.22;;
53497;SDS011;39382;47.168;16.008;2023-10-19T14:25:10;3.03;;;2.00;;
53497;SDS011;39382;47.168;16.008;2023-10-19T14:27:38;5.18;;;2.58;;
53497;SDS011;39382;47.168;16.008;2023-10-19T14:30:05;4.53;;;2.25;;
53497;SDS011;39382;47.168;16.008;2023-10-19T14:32:31;1.70;;;1.60;;
53497;SDS011;39382;47.168;16.008;2023-10-19T14:34:57;0.90;;;0.70;;
53497;SDS011;39382;47.168;16.008;2023-10-19T14:37:22;3.60;;;3.03;;
53497;SDS011;39382;47.168;16.008;2023-10-19T14:39:48;9.70;;;3.63;;
53497;SDS011;39382;47.168;16.008;2023-10-19T14:42:13;18.90;;;7.55;;
53497;SDS011;39382;47.168;16.008;2023-10-19T14:44:39;33.45;;;15.15;;
53497;SDS011;39382;47.168;16.008;2023-10-19T14:47:05;12.98;;;6.05;;
53497;SDS011;39382;47.168;16.008;2023-10-19T14:49:31;7.93;;;2.75;;
53497;SDS011;39382;47.168;16.008;2023-10-19T14:51:57;1.50;;;1.35;;
53497;SDS011;39382;47.168;16.008;2023-10-19T14:54:23;2.85;;;1.60;;
53497;SDS011;39382;47.168;16.008;2023-10-19T14:56:48;2.33;;;1.60;;
53497;SDS011;39382;47.168;16.008;2023-10-19T14:59:14;0.82;;;0.82;;